createdAt,value
2018-10-05T05:05:46.999Z,95846.69
2018-10-05T05:10:51.085Z,95846.55
2018-10-05T05:15:54.404Z,95854.84
2018-10-05T05:20:57.731Z,95857.73
2018-10-05T05:26:01.052Z,95858.83
2018-10-05T05:31:04.379Z,95855.66
2018-10-05T05:36:08.475Z,95859.41
2018-10-05T05:41:11.794Z,95854.52
2018-10-05T05:46:16.120Z,95857.91
2018-10-05T05:51:19.446Z,95855.24
2018-10-05T05:56:22.778Z,95865.03
2018-10-05T06:01:26.869Z,95867.69
2018-10-05T06:06:54.291Z,95875.96
2018-10-05T06:11:58.376Z,95869.73
2018-10-05T06:17:01.691Z,95870.96
2018-10-05T06:22:05.073Z,95872.52
2018-10-05T06:27:08.369Z,95882.95
2018-10-05T06:32:12.454Z,95878.98
2018-10-05T06:37:33.490Z,95884.45
2018-10-05T06:42:36.889Z,95893.41
2018-10-05T06:47:40.171Z,95893.95
2018-10-05T06:52:43.498Z,95899.95
2018-10-05T06:57:46.827Z,95899.78
2018-10-05T07:02:50.163Z,95901.87
2018-10-05T07:07:53.740Z,95897.80
2018-10-05T07:12:56.930Z,95898.00
2018-10-05T07:18:00.243Z,95894.27
2018-10-05T07:23:03.592Z,95886.16
2018-10-05T07:28:07.015Z,95891.06
2018-10-05T07:33:11.735Z,95900.48
2018-10-05T07:38:17.007Z,95901.30
2018-10-05T07:43:20.327Z,95893.64
2018-10-05T07:48:23.691Z,95893.37
2018-10-05T07:53:27.026Z,95896.62
2018-10-05T07:58:30.355Z,95902.75
2018-10-05T08:03:33.675Z,95901.80
2018-10-05T08:08:36.991Z,95908.34
2018-10-05T08:13:40.322Z,95903.27
2018-10-05T08:18:43.648Z,95901.08
2018-10-05T08:23:47.730Z,95894.86
2018-10-05T08:28:51.052Z,95886.92
2018-10-05T08:33:54.415Z,95883.77
2018-10-05T08:38:57.728Z,95884.37
2018-10-05T08:44:01.071Z,95872.19
2018-10-05T08:49:04.416Z,95867.06
2018-10-05T08:54:07.746Z,95865.95
2018-10-05T08:59:11.080Z,95856.57
2018-10-05T09:04:14.418Z,95859.08
2018-10-05T09:09:17.750Z,95854.70
2018-10-05T09:14:21.089Z,95844.11
2018-10-05T09:19:24.429Z,95847.63
2018-10-05T09:24:29.333Z,95828.58
2018-10-05T09:29:32.610Z,95828.46
2018-10-05T09:34:38.643Z,95807.83
2018-10-05T09:39:42.696Z,95801.08
2018-10-05T09:44:46.034Z,95785.84
2018-10-05T09:49:49.299Z,95786.39
2018-10-05T09:54:53.368Z,95784.09
2018-10-05T09:59:56.821Z,95784.52
2018-10-05T10:05:00.710Z,95771.77
2018-10-05T10:10:03.987Z,95777.64
2018-10-05T10:15:08.039Z,95766.30
2018-10-05T10:20:11.336Z,95764.84
2018-10-05T10:25:15.385Z,95758.82
2018-10-05T10:30:21.719Z,95754.69
2018-10-05T10:35:25.028Z,95748.41
2018-10-05T10:40:28.309Z,95752.90
2018-10-05T10:45:31.600Z,95751.11
2018-10-05T10:50:34.887Z,95743.64
2018-10-05T10:55:38.954Z,95745.53
2018-10-05T11:00:42.233Z,95739.28
2018-10-05T11:05:45.523Z,95732.04
2018-10-05T11:10:48.796Z,95727.88
2018-10-05T11:15:52.084Z,95710.83
2018-10-05T11:20:55.363Z,95709.55
2018-10-05T11:25:58.652Z,95701.34
2018-10-05T11:31:01.933Z,95686.45
2018-10-05T11:36:05.228Z,95684.19
2018-10-05T11:41:08.522Z,95670.64
2018-10-05T11:46:11.821Z,95662.83
2018-10-05T11:51:15.093Z,95656.27
2018-10-05T11:56:19.159Z,95643.88
2018-10-05T12:01:22.457Z,95626.52
2018-10-05T12:06:25.754Z,95622.27
2018-10-05T12:11:29.044Z,95607.84
2018-10-05T12:16:32.365Z,95600.39
2018-10-05T12:21:35.653Z,95602.02
2018-10-05T12:26:38.983Z,95601.81
2018-10-05T12:31:42.988Z,95602.02
2018-10-05T12:36:46.285Z,95601.89
2018-10-05T12:41:49.603Z,95594.30
2018-10-05T12:46:52.908Z,95586.98
2018-10-05T12:51:56.203Z,95571.73
2018-10-05T12:56:59.483Z,95567.49
2018-10-05T13:02:02.780Z,95566.62
2018-10-05T13:07:06.068Z,95567.59
2018-10-05T13:12:10.116Z,95557.25
2018-10-05T13:17:13.412Z,95551.61
2018-10-05T13:22:17.465Z,95547.07
2018-10-05T13:27:20.761Z,95534.30
2018-10-05T13:32:24.041Z,95525.06
2018-10-05T13:37:27.533Z,95523.30
2018-10-05T13:42:30.734Z,95521.34
2018-10-05T13:47:34.063Z,95515.36
2018-10-05T13:52:37.534Z,95508.17
2018-10-05T13:57:40.850Z,95499.75
2018-10-05T14:02:44.258Z,95500.44
2018-10-05T14:07:47.552Z,95499.59
2018-10-05T14:12:50.878Z,95491.98
2018-10-05T14:17:54.216Z,95483.28
2018-10-05T14:22:57.552Z,95489.24
2018-10-05T14:28:00.878Z,95470.97
2018-10-05T14:33:04.200Z,95480.73
2018-10-05T14:38:07.572Z,95483.97
2018-10-05T14:43:10.918Z,95475.80
2018-10-05T14:48:14.267Z,95479.37
2018-10-05T14:53:17.596Z,95463.89
2018-10-05T14:58:22.879Z,95456.00
2018-10-05T15:03:26.207Z,95448.25
2018-10-05T15:08:29.542Z,95457.11
2018-10-05T15:13:32.867Z,95459.33
2018-10-05T15:18:36.958Z,95434.92
2018-10-05T15:23:40.282Z,95434.87
2018-10-05T15:28:43.615Z,95439.78
2018-10-05T15:33:47.728Z,95434.58
2018-10-05T15:38:51.140Z,95425.63
2018-10-05T15:43:54.419Z,95424.27
2018-10-05T15:48:57.750Z,95421.28
2018-10-05T15:54:01.093Z,95409.12
2018-10-05T15:59:05.217Z,95409.41
2018-10-05T16:04:08.554Z,95395.48
2018-10-05T16:09:11.880Z,95401.48
2018-10-05T16:14:15.211Z,95407.80
2018-10-05T16:19:18.550Z,95405.45
2018-10-05T16:24:21.879Z,95408.58
2018-10-05T16:29:25.205Z,95406.90
2018-10-05T16:34:29.364Z,95394.31
2018-10-05T16:39:32.703Z,95393.52
2018-10-05T16:44:36.026Z,95381.77
2018-10-05T16:49:41.794Z,95387.77
2018-10-05T16:54:46.223Z,95387.66
2018-10-05T16:59:49.550Z,95394.72
2018-10-05T17:04:52.900Z,95395.73
2018-10-05T17:09:56.228Z,95394.53
2018-10-05T17:14:59.554Z,95403.23
2018-10-05T17:20:02.882Z,95398.27
2018-10-05T17:25:06.207Z,95389.67
2018-10-05T17:30:09.538Z,95371.78
2018-10-05T17:35:12.881Z,95375.34
2018-10-05T17:40:16.423Z,95374.89
2018-10-05T17:45:19.792Z,95364.23
2018-10-05T17:50:23.899Z,95367.27
2018-10-05T17:55:27.314Z,95364.96
2018-10-05T18:00:31.347Z,95377.40
2018-10-05T18:05:34.690Z,95371.48
2018-10-05T18:10:38.790Z,95371.09
2018-10-05T18:15:42.134Z,95367.95
2018-10-05T18:20:46.235Z,95374.01
2018-10-05T18:25:49.576Z,95379.17
2018-10-05T18:30:52.932Z,95383.45
2018-10-05T18:35:56.251Z,95370.88
2018-10-05T18:40:59.580Z,95369.54
2018-10-05T18:46:02.922Z,95357.37
2018-10-05T18:51:07.074Z,95351.13
2018-10-05T18:56:10.360Z,95352.19
2018-10-05T19:01:14.487Z,95359.34
2018-10-05T19:06:17.827Z,95351.08
2018-10-05T19:11:21.150Z,95339.42
2018-10-05T19:16:24.490Z,95343.41
2018-10-05T19:21:27.838Z,95353.88
2018-10-05T19:26:31.371Z,95356.21
2018-10-05T19:31:34.735Z,95359.08
2018-10-05T19:36:38.627Z,95351.73
2018-10-05T19:41:41.960Z,95363.70
2018-10-05T19:46:45.695Z,95363.66
2018-10-05T19:51:49.140Z,95360.72
2018-10-05T19:56:52.476Z,95364.55
2018-10-05T20:01:55.876Z,95353.41
2018-10-05T20:06:59.759Z,95351.98
2018-10-05T20:12:04.288Z,95356.20
2018-10-05T20:17:07.753Z,95346.67
2018-10-05T20:22:11.089Z,95343.94
2018-10-05T20:27:20.343Z,95344.27
2018-10-05T20:32:24.494Z,95349.07
2018-10-05T20:37:28.743Z,95347.28
2018-10-05T20:42:31.913Z,95354.56
2018-10-05T20:47:35.247Z,95350.06
2018-10-05T20:52:38.576Z,95347.52
2018-10-05T20:57:41.900Z,95341.36
2018-10-05T21:02:45.227Z,95341.20
2018-10-05T21:07:48.557Z,95332.16
2018-10-05T21:12:52.658Z,95328.73
2018-10-05T21:17:55.975Z,95324.77
2018-10-05T21:22:59.315Z,95333.53
2018-10-05T21:28:02.670Z,95333.72
2018-10-05T21:33:06.074Z,95341.66
2018-10-05T21:38:09.353Z,95334.44
2018-10-05T21:43:12.685Z,95333.09
2018-10-05T21:48:35.001Z,95336.13
2018-10-05T21:53:38.323Z,95335.77
2018-10-05T21:58:41.656Z,95329.89
2018-10-05T22:03:45.749Z,95330.39
2018-10-05T22:08:49.082Z,95329.37
2018-10-05T22:13:52.411Z,95331.98
2018-10-05T22:18:55.742Z,95319.77
2018-10-05T22:23:59.078Z,95309.91
2018-10-05T22:29:02.403Z,95307.98
